Time;durP1;ratioP1;P1;durP2;ratioP2;P2;SDS_P1;SDS_P2;PMS_P1;PMS_P2;Temp;Humidity;BMP_temperature;BMP_pressure;BME280_temperature;BME280_humidity;BME280_pressure;Samples;Min_cycle;Max_cycle;Signal;HPM_P1;HPM_P2
2021/12/16 00:30:01;;;;;;;64.80;42.60;;;;;;;8.01;100.00;103257.63;5252953;28;20460;-72
2021/12/16 00:35:05;;;;;;;59.77;43.57;;;;;;;8.03;100.00;103260.28;5252498;28;20594;-73
2021/12/16 00:37:36;;;;;;;59.40;42.60;;;;;;;8.05;100.00;103266.44;5252849;28;20037;-70
2021/12/16 00:40:12;;;;;;;60.70;42.57;;;;;;;8.03;100.00;103266.38;5252531;28;20039;-73
2021/12/16 00:42:50;;;;;;;62.45;44.00;;;;;;;8.03;100.00;103265.47;5252919;28;20029;-73
2021/12/16 00:45:46;;;;;;;61.72;42.13;;;;;;;8.02;100.00;103272.41;5220963;28;20486;-72
2021/12/16 00:56:15;;;;;;;60.40;42.20;;;;;;;8.00;100.00;103262.75;5231545;28;20541;-73
2021/12/16 00:58:53;;;;;;;60.43;42.30;;;;;;;8.01;100.00;103280.13;5231649;28;20026;-71
2021/12/16 01:35:48;;;;;;;58.50;41.75;;;;;;;8.02;100.00;103279.31;5194701;28;20034;-73
2021/12/16 01:38:37;;;;;;;58.03;42.05;;;;;;;8.01;100.00;103286.19;5194436;28;20652;-73
2021/12/16 01:41:49;;;;;;;57.08;43.20;;;;;;;8.02;100.00;103289.72;5194092;28;20257;-73
2021/12/16 01:52:37;;;;;;;61.30;42.63;;;;;;;8.03;100.00;103307.03;5300410;28;20487;-74
2021/12/16 01:55:14;;;;;;;57.92;40.60;;;;;;;8.03;100.00;103305.34;5299793;28;20035;-73
2021/12/16 01:57:50;;;;;;;56.47;42.45;;;;;;;8.03;100.00;103296.66;5300587;28;20016;-73
2021/12/16 02:00:55;;;;;;;53.13;39.20;;;;;;;8.03;100.00;103300.16;5300252;28;20031;-73
2021/12/16 02:03:41;;;;;;;59.17;40.63;;;;;;;8.01;100.00;103299.19;5299231;28;20024;-73
2021/12/16 02:08:53;;;;;;;59.38;42.17;;;;;;;8.01;100.00;103303.50;5299639;28;20814;-74
2021/12/16 02:39:04;;;;;;;51.22;39.58;;;;;;;7.93;100.00;103320.50;5299522;28;20036;-72
2021/12/16 02:41:39;;;;;;;58.88;41.10;;;;;;;7.95;100.00;103317.16;5299349;28;20027;-72
2021/12/16 02:44:22;;;;;;;59.97;40.67;;;;;;;7.94;100.00;103317.09;5299418;28;20035;-73
2021/12/16 02:49:55;;;;;;;63.25;42.25;;;;;;;7.93;100.00;103328.31;5299492;28;20067;-73
2021/12/16 02:52:28;;;;;;;59.83;42.80;;;;;;;7.94;100.00;103325.78;5298882;28;20077;-73
2021/12/16 02:55:00;;;;;;;57.10;41.47;;;;;;;7.95;100.00;103334.44;5299229;28;20086;-72
2021/12/16 02:57:39;;;;;;;61.13;42.50;;;;;;;7.95;100.00;103332.75;5299146;28;20020;-73
2021/12/16 03:00:13;;;;;;;54.58;40.25;;;;;;;7.92;100.00;103327.44;5298578;28;20105;-73
2021/12/16 03:02:48;;;;;;;54.05;40.85;;;;;;;7.92;100.00;103323.91;5298697;28;20031;-73
2021/12/16 03:05:21;;;;;;;53.22;39.40;;;;;;;7.90;100.00;103329.06;5280108;28;20043;-73
2021/12/16 03:07:54;;;;;;;54.05;38.45;;;;;;;7.90;100.00;103329.06;5298464;28;20468;-74
2021/12/16 03:13:11;;;;;;;57.60;40.65;;;;;;;7.91;100.00;103323.03;5299165;28;20032;-73
2021/12/16 03:18:33;;;;;;;52.70;40.58;;;;;;;7.91;100.00;103324.78;5298335;28;20097;-73
2021/12/16 03:21:22;;;;;;;60.55;42.42;;;;;;;7.91;100.00;103325.66;5297968;28;20048;-72
2021/12/16 03:34:59;;;;;;;57.03;41.30;;;;;;;7.92;100.00;103326.53;5298128;28;20044;-74
2021/12/16 03:37:31;;;;;;;57.63;40.05;;;;;;;7.88;100.00;103332.44;5298222;28;20559;-73
2021/12/16 03:40:11;;;;;;;59.80;40.45;;;;;;;7.89;100.00;103323.81;5298507;28;20028;-72
2021/12/16 03:42:47;;;;;;;56.33;41.55;;;;;;;7.90;100.00;103331.66;5298511;28;20376;-74
2021/12/16 03:48:44;;;;;;;57.67;41.25;;;;;;;7.85;100.00;103334.06;5297597;28;20484;-71
2021/12/16 03:51:27;;;;;;;57.28;40.63;;;;;;;7.87;100.00;103328.06;5278727;28;20047;-72
2021/12/16 03:54:05;;;;;;;58.85;42.53;;;;;;;7.87;100.00;103346.25;5298221;28;20085;-72
2021/12/16 03:56:38;;;;;;;56.45;41.22;;;;;;;7.85;100.00;103343.59;5297786;28;20090;-73
2021/12/16 03:59:13;;;;;;;58.42;41.67;;;;;;;7.83;100.00;103353.91;5297871;28;20087;-72
2021/12/16 04:01:45;;;;;;;62.13;43.15;;;;;;;7.84;100.00;103352.19;5298066;28;20126;-72
2021/12/16 04:04:16;;;;;;;55.47;40.40;;;;;;;7.84;100.00;103352.19;5297620;28;20538;-73
2021/12/16 04:06:48;;;;;;;52.80;40.40;;;;;;;7.87;100.00;103360.09;5297389;28;20024;-72
2021/12/16 04:09:19;;;;;;;62.23;43.27;;;;;;;7.83;100.00;103347.84;5297585;28;20051;-73
2021/12/16 04:12:07;;;;;;;59.40;39.67;;;;;;;7.87;100.00;103352.31;5298069;28;20024;-72
2021/12/16 04:14:40;;;;;;;58.42;42.20;;;;;;;7.86;100.00;103350.56;5297031;28;20551;-73
2021/12/16 04:17:13;;;;;;;54.90;38.92;;;;;;;7.84;100.00;103354.78;5297943;28;20355;-71
2021/12/16 04:19:44;;;;;;;55.78;39.47;;;;;;;7.83;100.00;103346.13;5297244;28;20486;-72
2021/12/16 04:22:41;;;;;;;58.43;39.87;;;;;;;7.87;100.00;103351.44;5292564;28;20047;-72
2021/12/16 04:25:19;;;;;;;52.20;38.30;;;;;;;7.80;100.00;103347.72;5297420;28;20036;-72
2021/12/16 04:27:54;;;;;;;57.90;40.53;;;;;;;7.80;100.00;103352.91;5297162;28;20031;-73
2021/12/16 04:30:29;;;;;;;59.70;41.20;;;;;;;7.78;100.00;103358.03;5278995;28;20029;-73
2021/12/16 04:33:00;;;;;;;59.90;41.05;;;;;;;7.75;100.00;103349.25;5297649;28;20389;-73
2021/12/16 04:35:32;;;;;;;54.87;40.17;;;;;;;7.75;100.00;103346.66;5297213;28;20114;-74
2021/12/16 04:38:06;;;;;;;58.38;40.25;;;;;;;7.73;100.00;103350.88;5297018;28;20792;-72
2021/12/16 04:40:39;;;;;;;60.95;42.17;;;;;;;7.72;100.00;103347.41;5297107;28;20028;-73
2021/12/16 04:43:18;;;;;;;58.70;41.78;;;;;;;7.70;100.00;103346.47;5296556;28;20070;-73
2021/12/16 04:45:50;;;;;;;60.97;43.72;;;;;;;7.70;100.00;103340.38;5296628;28;20028;-72
2021/12/16 04:48:21;;;;;;;60.40;41.65;;;;;;;7.70;100.00;103340.38;5296988;28;20356;-73
2021/12/16 04:50:53;;;;;;;59.27;42.63;;;;;;;7.67;100.00;103342.00;5296721;28;20031;-72
2021/12/16 04:53:24;;;;;;;57.00;39.17;;;;;;;7.63;100.00;103341.81;5297007;28;20113;-73
2021/12/16 04:55:56;;;;;;;63.30;42.37;;;;;;;7.55;100.00;103340.63;5296266;28;20039;-73
2021/12/16 04:58:27;;;;;;;64.20;44.23;;;;;;;7.48;100.00;103344.69;5295655;28;20035;-72
2021/12/16 05:00:59;;;;;;;57.00;39.63;;;;;;;7.43;100.00;103341.91;5296236;28;20032;-73
2021/12/16 05:03:31;;;;;;;64.03;42.70;;;;;;;7.37;100.00;103340.75;5296556;28;20067;-74
2021/12/16 05:06:05;;;;;;;63.85;42.70;;;;;;;7.33;100.00;103341.47;5296436;28;20301;-72
2021/12/16 05:08:37;;;;;;;66.90;45.85;;;;;;;7.31;100.00;103341.41;5296655;28;20422;-75
2021/12/16 05:11:12;;;;;;;;;;;;;;;7.29;100.00;103340.44;5297142;28;20042;-72
2021/12/16 05:13:44;;;;;;;64.88;44.05;;;;;;;7.20;100.00;103343.53;5296266;28;19919;-73
2021/12/16 05:16:16;;;;;;;69.60;45.42;;;;;;;7.17;100.00;103345.13;5296366;28;20447;-74
2021/12/16 05:18:47;;;;;;;72.77;45.83;;;;;;;7.12;100.00;103353.59;5296644;28;20036;-72
2021/12/16 05:21:46;;;;;;;73.77;46.77;;;;;;;7.07;100.00;103352.50;5294876;28;20067;-74
2021/12/16 05:24:27;;;;;;;74.45;48.28;;;;;;;7.03;100.00;103350.59;5275106;28;20036;-74
2021/12/16 05:27:03;;;;;;;73.85;47.25;;;;;;;6.97;100.00;103352.94;5275219;28;20040;-75
2021/12/16 05:29:34;;;;;;;71.00;46.40;;;;;;;6.94;100.00;103356.28;5275379;28;20441;-73
2021/12/16 05:32:06;;;;;;;77.27;49.60;;;;;;;6.91;100.00;103358.75;5275635;28;20036;-75
2021/12/16 05:34:38;;;;;;;72.82;46.35;;;;;;;6.84;100.00;103361.91;5275462;28;20465;-74
2021/12/16 05:37:09;;;;;;;68.50;43.47;;;;;;;6.71;100.00;103365.66;5275383;28;20055;-72
2021/12/16 05:39:41;;;;;;;72.33;48.93;;;;;;;6.74;100.00;103370.94;5275137;28;20032;-74
2021/12/16 05:42:12;;;;;;;73.97;49.83;;;;;;;6.69;100.00;103366.38;5274986;28;20417;-72
2021/12/16 05:44:44;;;;;;;78.97;49.63;;;;;;;6.61;100.00;103370.34;5257259;28;20508;-73
2021/12/16 05:47:15;;;;;;;78.03;49.57;;;;;;;6.51;100.00;103372.50;5275586;28;20085;-73
2021/12/16 05:49:47;;;;;;;68.87;44.10;;;;;;;6.37;100.00;103379.63;5275004;28;20031;-72
2021/12/16 05:52:18;;;;;;;73.57;48.27;;;;;;;6.38;100.00;103377.97;5240514;28;20063;-72
2021/12/16 05:57:31;;;;;;;76.18;48.90;;;;;;;6.27;100.00;103381.75;5343517;22;20049;-74
2021/12/16 06:00:08;;;;;;;82.37;50.33;;;;;;;6.26;100.00;103386.03;5254429;28;20037;-72
2021/12/16 06:02:40;;;;;;;70.55;47.03;;;;;;;6.05;100.00;103391.06;5253845;28;20021;-73
2021/12/16 06:05:12;;;;;;;76.57;47.40;;;;;;;5.98;100.00;103391.63;5254187;28;20037;-74
2021/12/16 06:07:44;;;;;;;71.53;44.05;;;;;;;5.90;100.00;103400.69;5253999;28;20043;-73
2021/12/16 06:10:55;;;;;;;71.97;45.67;;;;;;;5.94;100.00;103405.19;5257394;28;20032;-76
2021/12/16 06:13:11;;;;;;;84.03;48.35;;;;;;;5.92;100.00;103406.81;5258033;28;20045;-72
2021/12/16 06:27:21;;;;;;;79.85;46.17;;;;;;;5.54;100.00;103411.88;5193573;28;20056;-75
2021/12/16 06:29:54;;;;;;;77.40;48.78;;;;;;;5.60;100.00;103408.69;5193418;28;20897;-72
2021/12/16 06:32:26;;;;;;;81.72;49.25;;;;;;;5.47;100.00;103422.72;5193691;28;20473;-73
2021/12/16 06:34:57;;;;;;;70.75;44.72;;;;;;;5.42;100.00;103417.31;5193833;28;20412;-75
2021/12/16 06:37:28;;;;;;;67.27;45.27;;;;;;;5.43;100.00;103421.69;5194658;28;20034;-73
2021/12/16 06:40:00;;;;;;;71.47;46.67;;;;;;;5.38;100.00;103419.69;5194510;28;20041;-74
2021/12/16 06:42:36;;;;;;;77.95;46.15;;;;;;;5.30;100.00;103419.28;5194477;28;20038;-73
2021/12/16 06:45:14;;;;;;;72.97;44.70;;;;;;;5.29;100.00;103412.31;5193595;28;20449;-73
2021/12/16 06:47:52;;;;;;;67.32;44.97;;;;;;;5.21;100.00;103421.38;5193695;28;20129;-73
2021/12/16 06:50:44;;;;;;;73.28;44.53;;;;;;;5.14;100.00;103425.38;5193720;28;20581;-72
2021/12/16 06:53:26;;;;;;;66.88;44.70;;;;;;;5.21;100.00;103423.97;5182103;28;20072;-73
2021/12/16 06:56:06;;;;;;;66.55;43.20;;;;;;;5.08;100.00;103419.88;5257192;28;20029;-73
2021/12/16 06:58:47;;;;;;;67.70;43.53;;;;;;;5.07;100.00;103424.16;5257539;28;20028;-72
2021/12/16 07:01:37;;;;;;;84.38;48.85;;;;;;;5.09;100.00;103427.69;5257345;28;20025;-74
2021/12/16 07:04:14;;;;;;;79.90;46.95;;;;;;;5.07;100.00;103428.41;5257259;28;20028;-73
2021/12/16 07:06:45;;;;;;;77.85;48.25;;;;;;;4.97;100.00;103427.03;5257395;28;20064;-74
2021/12/16 07:09:18;;;;;;;74.83;47.93;;;;;;;4.98;100.00;103431.41;5257504;28;20103;-73
2021/12/16 07:11:56;;;;;;;78.13;47.55;;;;;;;4.93;100.00;103445.81;5256983;28;20110;-75
2021/12/16 07:14:39;;;;;;;75.97;45.15;;;;;;;4.84;100.00;103441.00;5256903;28;20057;-74
2021/12/16 07:17:14;;;;;;;74.68;46.85;;;;;;;4.82;100.00;103444.34;5257757;28;20463;-72
2021/12/16 07:19:46;;;;;;;71.95;44.30;;;;;;;4.74;100.00;103449.97;5256865;28;20495;-72
2021/12/16 07:22:18;;;;;;;72.13;46.10;;;;;;;4.73;100.00;103462.81;5256790;28;20059;-75
2021/12/16 07:24:50;;;;;;;71.70;46.35;;;;;;;4.66;100.00;103460.72;5238032;28;20037;-73
2021/12/16 07:27:21;;;;;;;77.73;46.13;;;;;;;4.63;100.00;103465.69;5257282;28;20032;-72
2021/12/16 07:29:52;;;;;;;73.23;46.57;;;;;;;4.62;100.00;103470.00;5256468;28;20052;-76
2021/12/16 07:32:24;;;;;;;75.53;47.23;;;;;;;4.57;100.00;103476.56;5257070;28;20033;-74
2021/12/16 07:34:55;;;;;;;73.77;44.37;;;;;;;4.56;100.00;103475.69;5256753;28;20424;-73
2021/12/16 07:37:27;;;;;;;77.87;47.57;;;;;;;4.63;100.00;103481.22;5256279;28;20442;-73
2021/12/16 07:40:00;;;;;;;67.47;44.83;;;;;;;4.60;100.00;103494.84;5256703;28;20469;-72
2021/12/16 07:42:43;;;;;;;68.95;44.00;;;;;;;4.51;100.00;103494.34;5255813;28;20029;-74
2021/12/16 07:45:17;;;;;;;82.15;48.25;;;;;;;4.48;100.00;103486.41;5256336;28;20029;-73
2021/12/16 07:47:49;;;;;;;93.95;52.60;;;;;;;4.60;100.00;103492.25;5256118;28;20040;-74
2021/12/16 07:50:21;;;;;;;77.03;49.57;;;;;;;4.52;100.00;103503.84;5256889;28;20036;-71
2021/12/16 07:52:53;;;;;;;83.90;49.17;;;;;;;4.51;100.00;103507.25;5256139;28;20028;-74
2021/12/16 07:55:25;;;;;;;79.07;47.75;;;;;;;4.55;100.00;103511.78;5256552;28;20029;-73
2021/12/16 07:57:57;;;;;;;75.15;48.58;;;;;;;4.48;100.00;103518.31;5255659;28;20045;-72
2021/12/16 08:00:33;;;;;;;73.57;46.57;;;;;;;4.46;100.00;103525.06;5256227;28;20423;-72
2021/12/16 08:03:07;;;;;;;80.18;46.97;;;;;;;4.48;100.00;103527.75;5256536;28;20025;-74
2021/12/16 08:05:47;;;;;;;82.05;49.67;;;;;;;4.48;100.00;103533.78;5255979;28;20496;-72
2021/12/16 08:08:19;;;;;;;80.68;47.45;;;;;;;4.46;100.00;103534.50;5256249;28;20392;-74
2021/12/16 08:10:52;;;;;;;71.70;44.63;;;;;;;4.48;100.00;103543.25;5256027;28;20021;-74
2021/12/16 08:13:24;;;;;;;80.30;47.13;;;;;;;4.46;100.00;103538.00;5256025;28;20491;-73
2021/12/16 08:15:55;;;;;;;69.63;45.88;;;;;;;4.50;100.00;103547.69;5256451;28;20427;-76
2021/12/16 08:18:28;;;;;;;77.47;47.80;;;;;;;4.52;100.00;103547.78;5256266;28;20039;-74
2021/12/16 08:21:00;;;;;;;;;;;;;;;4.49;100.00;103545.91;5256337;28;20025;-76
2021/12/16 08:23:32;;;;;;;71.18;45.30;;;;;;;4.59;100.00;103551.59;5255337;28;20410;-73
2021/12/16 08:26:04;;;;;;;81.65;49.20;;;;;;;4.56;100.00;103563.53;5255910;28;20025;-73
2021/12/16 08:28:36;;;;;;;78.60;47.30;;;;;;;4.57;100.00;103559.25;5255912;28;20483;-73
2021/12/16 08:31:08;;;;;;;76.53;48.63;;;;;;;4.67;100.00;103566.72;5255280;28;20021;-72
2021/12/16 08:33:40;;;;;;;76.97;47.93;;;;;;;4.67;100.00;103566.72;5255692;28;20031;-73
2021/12/16 08:36:11;;;;;;;83.40;49.20;;;;;;;4.75;100.00;103564.59;5255353;28;20031;-73
2021/12/16 08:38:44;;;;;;;81.77;48.70;;;;;;;4.80;100.00;103568.31;5255411;28;20029;-73
2021/12/16 08:41:22;;;;;;;85.63;49.45;;;;;;;4.78;100.00;103567.31;5254711;28;20036;-72
2021/12/16 08:43:53;;;;;;;107.38;55.78;;;;;;;4.98;100.00;103572.72;5255383;28;20029;-74
2021/12/16 08:46:28;;;;;;;128.40;60.13;;;;;;;5.07;100.00;103578.38;5254914;28;20094;-74
2021/12/16 08:49:00;;;;;;;269.38;81.85;;;;;;;5.17;100.00;103575.50;5255460;28;20084;-72
2021/12/16 08:51:35;;;;;;;139.63;63.77;;;;;;;5.35;100.00;103574.72;5255197;28;20521;-73
2021/12/16 08:54:07;;;;;;;124.07;58.55;;;;;;;5.30;100.00;103583.13;5254949;28;20064;-73
2021/12/16 08:56:39;;;;;;;112.70;57.47;;;;;;;5.58;100.00;103582.00;5255455;28;20146;-73
2021/12/16 08:59:11;;;;;;;113.40;58.80;;;;;;;5.68;100.00;103587.66;5254671;28;20031;-72
2021/12/16 09:01:47;;;;;;;95.20;53.97;;;;;;;5.87;100.00;103605.03;5255254;28;20403;-73
2021/12/16 09:04:23;;;;;;;93.53;53.35;;;;;;;6.00;100.00;103600.59;5255219;28;20033;-73
2021/12/16 09:07:00;;;;;;;96.80;55.72;;;;;;;6.27;100.00;103605.41;5255569;28;20037;-72
2021/12/16 09:09:34;;;;;;;81.28;48.55;;;;;;;6.37;100.00;103609.34;5253674;28;20128;-72
2021/12/16 09:12:15;;;;;;;78.50;49.42;;;;;;;6.67;100.00;103609.09;5254498;28;20472;-72
2021/12/16 09:14:46;;;;;;;80.85;49.08;;;;;;;6.88;100.00;103598.88;5254912;28;20025;-73
2021/12/16 09:17:17;;;;;;;79.70;49.23;;;;;;;7.03;100.00;103593.50;5255526;28;20039;-72
2021/12/16 09:19:51;;;;;;;83.40;45.50;;;;;;;7.21;100.00;103601.25;5255413;28;20526;-74
2021/12/16 09:22:24;;;;;;;67.68;45.13;;;;;;;7.58;100.00;103611.63;5255364;28;20029;-74
2021/12/16 09:24:56;;;;;;;;;;;;;;;7.91;100.00;103613.94;5261638;23;20056;-71
2021/12/16 09:27:28;;;;;;;57.80;41.45;;;;;;;7.85;100.00;103606.75;5234202;28;19925;-73
2021/12/16 09:30:00;;;;;;;54.77;39.60;;;;;;;8.06;100.00;103605.91;5234747;28;20746;-72
2021/12/16 09:32:32;;;;;;;52.08;37.88;;;;;;;8.47;100.00;103609.41;5233789;28;20040;-72
2021/12/16 09:35:07;;;;;;;49.20;35.75;;;;;;;8.57;100.00;103611.56;5234137;28;20392;-73
2021/12/16 09:37:39;;;;;;;41.80;33.15;;;;;;;8.65;100.00;103600.59;5234098;28;20021;-72
2021/12/16 09:40:15;;;;;;;45.13;33.13;;;;;;;8.73;100.00;103613.06;5233150;28;20715;-73
2021/12/16 09:42:49;;;;;;;39.25;30.85;;;;;;;9.23;100.00;103617.59;5233566;28;20035;-71
2021/12/16 09:45:22;;;;;;;41.60;31.13;;;;;;;9.47;100.00;103615.91;5236873;28;20029;-71
2021/12/16 09:47:53;;;;;;;42.97;29.67;;;;;;;9.58;100.00;103610.22;5238112;28;20408;-71
2021/12/16 09:50:28;;;;;;;34.93;28.43;;;;;;;10.02;100.00;103614.41;5237801;28;20029;-73
2021/12/16 09:53:01;;;;;;;35.75;27.55;;;;;;;10.17;99.57;103619.25;5237992;28;20025;-71
2021/12/16 09:55:34;;;;;;;38.63;27.10;;;;;;;10.34;93.53;103612.06;5238603;28;20385;-72
2021/12/16 09:58:06;;;;;;;34.10;27.45;;;;;;;10.32;94.12;103618.97;5237494;28;20033;-74
2021/12/16 10:00:37;;;;;;;33.93;26.33;;;;;;;10.45;92.38;103611.53;5238348;28;20551;-72
2021/12/16 10:03:09;;;;;;;32.90;26.50;;;;;;;10.84;91.62;103608.44;5238201;28;20474;-73
2021/12/16 10:05:40;;;;;;;28.77;25.27;;;;;;;11.21;92.34;103615.69;5237516;28;20029;-72
2021/12/16 10:08:12;;;;;;;35.97;24.70;;;;;;;11.01;87.60;103614.19;5237821;28;20525;-72
2021/12/16 10:10:43;;;;;;;41.87;25.53;;;;;;;11.16;88.12;103614.66;5237118;28;20036;-73
2021/12/16 10:13:22;;;;;;;38.33;24.70;;;;;;;11.67;88.04;103630.09;5237528;28;20029;-73
2021/12/16 10:18:39;;;;;;;33.58;25.02;;;;;;;11.87;82.61;103614.06;5237446;28;20929;-74
2021/12/16 10:21:12;;;;;;;33.70;24.33;;;;;;;11.88;82.39;103614.94;5237297;28;20029;-71
2021/12/16 10:23:44;;;;;;;29.02;24.10;;;;;;;12.26;81.28;103626.44;5236804;28;20033;-73
2021/12/16 10:26:20;;;;;;;32.90;24.20;;;;;;;12.09;80.55;103628.63;5236475;28;20115;-73
2021/12/16 10:28:57;;;;;;;45.55;24.90;;;;;;;11.90;80.83;103624.59;5237098;28;20085;-72
2021/12/16 10:31:34;;;;;;;31.23;23.40;;;;;;;12.03;80.64;103618.88;5237121;28;20112;-72
2021/12/16 10:34:10;;;;;;;40.90;23.50;;;;;;;11.95;80.40;103617.81;5236924;28;20026;-75
2021/12/16 10:36:45;;;;;;;29.05;21.63;;;;;;;11.92;80.89;103622.94;5237574;28;20053;-72
2021/12/16 10:39:21;;;;;;;28.58;23.40;;;;;;;12.10;80.81;103626.91;5236908;28;20086;-73
2021/12/16 10:42:04;;;;;;;23.40;20.50;;;;;;;11.93;80.92;103609.03;5236880;28;20026;-72
2021/12/16 10:44:37;;;;;;;30.50;22.40;;;;;;;12.25;79.56;103611.59;5236878;28;20052;-73
2021/12/16 10:47:13;;;;;;;29.30;21.13;;;;;;;12.50;78.88;103622.69;5236773;28;20029;-73
2021/12/16 10:49:52;;;;;;;28.20;20.63;;;;;;;13.04;76.85;103616.97;5237279;28;20772;-72
2021/12/16 10:52:27;;;;;;;27.55;20.25;;;;;;;13.73;73.57;103622.78;5220497;28;20108;-77
2021/12/16 10:54:59;;;;;;;25.08;18.90;;;;;;;13.70;72.63;103616.59;5236012;28;20637;-73
2021/12/16 10:57:31;;;;;;;28.23;19.10;;;;;;;12.70;74.66;103613.59;5236367;28;20035;-75
2021/12/16 11:00:12;;;;;;;30.80;19.95;;;;;;;12.41;77.94;103610.25;5218942;28;20021;-72
2021/12/16 11:02:44;;;;;;;25.10;19.50;;;;;;;12.85;77.70;103614.81;5236135;28;20156;-72
2021/12/16 11:05:19;;;;;;;21.30;17.98;;;;;;;13.22;75.57;103624.34;5236922;28;20453;-73
2021/12/16 11:07:54;;;;;;;23.63;18.15;;;;;;;13.17;74.18;103618.13;5236780;28;20036;-74
2021/12/16 11:10:29;;;;;;;25.35;19.13;;;;;;;13.58;72.84;103618.13;5236773;28;20029;-73
2021/12/16 11:13:08;;;;;;;25.23;18.20;;;;;;;14.97;71.28;103625.78;5236276;28;20461;-76
2021/12/16 11:15:53;;;;;;;28.17;19.42;;;;;;;14.71;69.51;103621.03;5250893;28;20481;-73
2021/12/16 11:18:26;;;;;;;23.48;15.93;;;;;;;14.69;68.22;103619.25;5236323;28;20103;-74
2021/12/16 11:21:04;;;;;;;23.77;16.45;;;;;;;15.24;67.33;103627.91;5236152;28;20116;-72
2021/12/16 11:23:41;;;;;;;22.85;16.77;;;;;;;14.51;67.60;103639.06;5236113;28;20120;-72
2021/12/16 11:26:26;;;;;;;21.55;16.58;;;;;;;15.04;67.69;103627.66;5236254;28;20057;-73
2021/12/16 11:28:57;;;;;;;25.73;15.95;;;;;;;15.11;66.59;103623.34;5235796;28;20052;-71
2021/12/16 11:31:32;;;;;;;20.47;15.47;;;;;;;14.18;67.10;103632.41;5235991;28;20025;-73
2021/12/16 11:34:08;;;;;;;20.38;15.02;;;;;;;13.91;70.70;103634.47;5236354;28;20422;-76
2021/12/16 11:36:44;;;;;;;19.23;15.05;;;;;;;13.78;70.88;103630.75;5250612;28;20041;-72
2021/12/16 11:39:24;;;;;;;20.92;15.40;;;;;;;13.62;71.79;103621.69;5235600;28;20427;-72
2021/12/16 11:42:03;;;;;;;26.80;15.65;;;;;;;13.22;73.12;103628.72;5235904;28;20037;-74
2021/12/16 11:44:39;;;;;;;24.55;15.45;;;;;;;12.94;73.36;103625.47;5235078;28;20033;-74
2021/12/16 11:47:20;;;;;;;19.65;14.32;;;;;;;13.46;72.77;103616.16;5235006;28;20053;-75
2021/12/16 11:49:57;;;;;;;20.55;13.80;;;;;;;15.63;68.60;103623.13;5236107;28;20026;-73
2021/12/16 11:52:35;;;;;;;21.13;14.55;;;;;;;16.14;64.06;103613.16;5236472;28;20608;-73
2021/12/16 11:55:13;;;;;;;19.65;13.45;;;;;;;17.20;61.03;103615.69;5235894;28;20033;-76
2021/12/16 11:57:50;;;;;;;18.55;13.63;;;;;;;16.71;60.13;103611.84;5235961;28;20486;-74
2021/12/16 12:00:25;;;;;;;19.40;14.02;;;;;;;16.29;60.03;103618.53;5235660;28;20022;-75
2021/12/16 12:03:02;;;;;;;16.77;12.93;;;;;;;15.39;62.30;103611.47;5217936;28;20037;-72
2021/12/16 12:05:36;;;;;;;16.95;13.43;;;;;;;15.31;63.55;103610.47;5236120;28;20034;-74
2021/12/16 12:08:10;;;;;;;18.58;12.90;;;;;;;14.55;65.73;103612.03;5238978;28;20029;-75
2021/12/16 12:10:50;;;;;;;20.92;13.07;;;;;;;14.17;67.47;103612.25;5238544;28;20109;-75
2021/12/16 12:13:25;;;;;;;18.25;12.95;;;;;;;15.22;65.57;103616.50;5238516;28;20053;-75
2021/12/16 12:16:12;;;;;;;17.42;12.40;;;;;;;14.85;65.60;103601.97;5235541;28;20210;-75
2021/12/16 12:18:45;;;;;;;17.58;13.60;;;;;;;14.51;66.26;103609.31;5235766;28;20026;-75
2021/12/16 12:21:28;;;;;;;15.88;11.32;;;;;;;14.57;66.46;103612.91;5235366;28;20103;-78
2021/12/16 12:23:59;;;;;;;14.70;9.73;;;;;;;14.40;65.11;103612.63;5235294;28;20072;-74
2021/12/16 12:26:34;;;;;;;17.80;12.13;;;;;;;14.18;66.60;103605.25;5235182;28;20445;-75
2021/12/16 12:29:11;;;;;;;15.63;12.38;;;;;;;13.95;67.43;103604.84;5234567;28;20029;-75
2021/12/16 12:31:47;;;;;;;19.77;11.68;;;;;;;13.83;69.04;103611.66;5235398;28;20034;-71
2021/12/16 12:37:03;;;;;;;16.65;12.25;;;;;;;13.98;67.99;103602.28;5255423;26;20053;-74
2021/12/16 12:39:39;;;;;;;23.30;14.07;;;;;;;13.53;69.20;103595.31;5276667;28;20035;-75
2021/12/16 12:42:12;;;;;;;15.77;12.55;;;;;;;13.25;69.87;103605.19;5258297;28;20028;-73
2021/12/16 12:44:44;;;;;;;19.88;13.25;;;;;;;13.04;70.92;103602.97;5276609;28;20098;-72
2021/12/16 12:47:20;;;;;;;16.00;12.60;;;;;;;12.72;72.60;103604.03;5276468;28;20028;-73
2021/12/16 12:49:53;;;;;;;22.88;14.70;;;;;;;12.68;73.59;103603.91;5275965;28;20293;-74
2021/12/16 12:52:30;;;;;;;20.42;13.77;;;;;;;13.20;72.66;103607.72;5276446;28;20031;-72
2021/12/16 12:55:12;;;;;;;18.90;13.10;;;;;;;14.62;67.18;103599.91;5276831;28;20115;-75
2021/12/16 12:57:45;;;;;;;16.65;13.18;;;;;;;15.85;61.86;103605.88;5276588;28;20028;-74
2021/12/16 13:00:31;;;;;;;18.27;11.82;;;;;;;16.61;59.69;103599.47;5276468;28;20389;-73
2021/12/16 13:03:17;;;;;;;16.02;11.65;;;;;;;16.73;58.27;103591.66;5276401;28;20025;-73
2021/12/16 13:05:52;;;;;;;18.42;12.25;;;;;;;17.50;57.00;103591.19;5276802;28;20033;-73
2021/12/16 13:08:35;;;;;;;17.33;12.45;;;;;;;16.51;59.02;103598.53;5276669;28;20024;-72
2021/12/16 13:11:11;;;;;;;18.38;13.13;;;;;;;14.95;61.13;103588.09;5276599;28;20017;-73
2021/12/16 13:31:27;;;;;;;14.75;11.27;;;;;;;12.49;72.11;103595.63;5322176;28;20039;-74
2021/12/16 13:34:01;;;;;;;16.83;12.05;;;;;;;12.55;71.63;103592.28;5322853;28;20127;-74
2021/12/16 13:36:46;;;;;;;20.13;12.50;;;;;;;12.52;72.58;103592.19;5322309;28;20102;-73
2021/12/16 13:39:22;;;;;;;23.77;13.75;;;;;;;12.53;71.99;103599.22;5322690;28;20039;-75
2021/12/16 13:42:12;;;;;;;19.48;12.75;;;;;;;12.60;71.87;103598.50;5322553;28;20426;-74
2021/12/16 13:45:07;;;;;;;20.77;13.00;;;;;;;12.48;72.37;103600.84;5322708;28;20030;-73
2021/12/16 14:07:57;;;;;;;13.27;9.82;;;;;;;17.53;54.32;103608.75;5321819;28;20114;-71
2021/12/16 14:10:39;;;;;;;14.75;10.13;;;;;;;17.35;53.94;103606.94;5321541;28;20031;-72
2021/12/16 14:16:38;;;;;;;16.17;10.63;;;;;;;18.09;54.08;103609.78;5214924;28;20111;-72
2021/12/16 14:42:58;;;;;;;14.30;9.25;;;;;;;15.80;57.35;103628.59;5133933;29;20043;-73
2021/12/16 14:45:53;;;;;;;15.10;8.75;;;;;;;15.02;59.10;103629.38;5134122;29;20087;-74
2021/12/16 14:48:32;;;;;;;14.48;8.88;;;;;;;14.58;60.98;103637.41;5133010;29;20059;-75
2021/12/16 14:51:10;;;;;;;15.88;9.00;;;;;;;14.07;62.62;103636.56;5134028;29;20118;-74
2021/12/16 14:53:50;;;;;;;14.32;8.95;;;;;;;13.79;63.88;103630.78;5189765;28;20042;-78
2021/12/16 14:56:31;;;;;;;16.75;9.27;;;;;;;13.62;64.71;103630.47;5193760;28;20117;-76
2021/12/16 14:59:08;;;;;;;14.73;9.15;;;;;;;13.32;65.61;103622.81;5242503;28;20686;-73
2021/12/16 15:01:48;;;;;;;18.38;9.85;;;;;;;13.28;66.20;103632.34;5321061;28;20105;-73
2021/12/16 15:04:24;;;;;;;16.00;9.75;;;;;;;12.99;67.16;103631.69;5321287;28;20020;-73
2021/12/16 15:07:06;;;;;;;16.63;9.45;;;;;;;12.73;68.78;103636.31;5302528;28;20554;-73
2021/12/16 15:09:39;;;;;;;14.52;9.38;;;;;;;12.63;69.07;103634.34;5320781;28;20141;-74
2021/12/16 15:12:41;;;;;;;14.43;8.75;;;;;;;12.57;69.24;103635.06;5321017;28;20111;-74
2021/12/16 15:15:26;;;;;;;13.88;8.93;;;;;;;12.49;69.92;103634.88;5320477;28;20553;-72
2021/12/16 15:35:56;;;;;;;14.07;9.95;;;;;;;11.76;73.31;103652.97;5320428;28;20039;-72
2021/12/16 15:40:59;;;;;;;14.10;9.65;;;;;;;11.63;74.17;103646.50;5320291;28;20101;-76
2021/12/16 15:43:33;;;;;;;22.45;12.10;;;;;;;11.65;74.20;103655.25;5321340;28;20074;-74
2021/12/16 15:46:05;;;;;;;16.45;10.80;;;;;;;11.51;74.75;103656.59;5322871;28;20091;-73
2021/12/16 15:48:36;;;;;;;14.93;11.20;;;;;;;11.59;74.60;103655.09;5302911;28;20794;-72